Time;durP1;ratioP1;P1;durP2;ratioP2;P2;SDS_P1;SDS_P2;PMS_P1;PMS_P2;Temp;Humidity;BMP_temperature;BMP_pressure;BME280_temperature;BME280_humidity;BME280_pressure;Samples;Min_cycle;Max_cycle;Signal;HPM_P1;HPM_P2
2024/01/01 00:00:16;;;;;;;3.78;1.08;;;7.90;99.90;;;;;;5072962;28;20081;-67
2024/01/01 00:02:43;;;;;;;7.47;1.60;;;7.80;99.90;;;;;;5072975;28;20025;-67
2024/01/01 00:05:10;;;;;;;3.33;0.47;;;7.70;99.90;;;;;;5038361;28;20401;-69
2024/01/01 00:07:36;;;;;;;3.83;0.63;;;7.60;99.90;;;;;;5072906;28;20021;-68
2024/01/01 00:10:02;;;;;;;4.95;0.50;;;7.70;99.90;;;;;;5072963;28;20024;-68
2024/01/01 00:12:28;;;;;;;2.80;0.63;;;7.70;99.90;;;;;;5072887;28;20043;-68
2024/01/01 00:14:55;;;;;;;4.80;0.30;;;7.60;99.90;;;;;;5072881;28;20032;-68
2024/01/01 00:17:21;;;;;;;0.60;0.52;;;7.60;99.90;;;;;;5072932;28;20439;-68
2024/01/01 00:19:47;;;;;;;0.20;0.20;;;7.60;99.90;;;;;;5054713;28;20485;-67
2024/01/01 00:22:13;;;;;;;1.90;0.70;;;7.70;99.90;;;;;;5073057;28;20028;-68
2024/01/01 00:24:38;;;;;;;5.65;0.55;;;7.60;99.90;;;;;;5072586;28;20509;-67
2024/01/01 00:27:05;;;;;;;2.95;1.33;;;7.60;99.90;;;;;;5054568;28;20028;-68
2024/01/01 00:29:31;;;;;;;4.25;0.73;;;7.60;99.90;;;;;;5072658;28;20033;-68
2024/01/01 00:31:57;;;;;;;4.93;0.40;;;7.70;99.90;;;;;;5072760;28;20028;-67
2024/01/01 00:34:23;;;;;;;2.15;0.95;;;7.70;99.90;;;;;;5072605;28;20481;-68
2024/01/01 00:36:49;;;;;;;0.20;0.20;;;7.80;99.90;;;;;;5054660;28;20081;-68
2024/01/01 00:39:15;;;;;;;2.67;0.35;;;7.80;99.90;;;;;;5072689;28;20035;-68
2024/01/01 00:41:41;;;;;;;1.13;0.80;;;7.80;99.90;;;;;;5038400;28;20497;-68
2024/01/01 00:44:06;;;;;;;3.88;0.95;;;7.90;99.90;;;;;;5058338;28;20076;-69
2024/01/01 00:46:32;;;;;;;5.07;0.75;;;7.90;99.90;;;;;;5076764;28;20036;-68
2024/01/01 00:48:58;;;;;;;6.75;1.10;;;8.00;99.90;;;;;;5058382;28;20020;-68
2024/01/01 00:51:24;;;;;;;2.38;0.82;;;8.00;99.90;;;;;;5058643;28;20040;-68
2024/01/01 00:53:51;;;;;;;5.80;1.55;;;7.90;99.90;;;;;;5058225;28;20067;-68
2024/01/01 00:56:17;;;;;;;2.67;0.90;;;8.00;99.90;;;;;;5076385;28;20090;-68
2024/01/01 00:58:43;;;;;;;25.40;1.63;;;8.10;99.90;;;;;;5076380;28;20044;-68
2024/01/01 01:01:09;;;;;;;8.85;1.95;;;8.10;99.90;;;;;;5076272;28;20090;-67
2024/01/01 01:03:35;;;;;;;2.80;0.47;;;8.10;99.90;;;;;;5058266;28;20024;-68
2024/01/01 01:06:03;;;;;;;2.20;1.02;;;8.20;99.90;;;;;;5058235;28;20024;-69
2024/01/01 01:08:29;;;;;;;10.98;1.85;;;8.20;99.90;;;;;;5041557;28;20416;-68
2024/01/01 01:10:55;;;;;;;0.95;0.80;;;8.20;99.90;;;;;;5058024;28;20032;-68
2024/01/01 01:13:21;;;;;;;18.23;2.08;;;8.20;99.90;;;;;;5076129;28;20103;-68
2024/01/01 01:15:48;;;;;;;4.22;1.08;;;8.30;99.90;;;;;;5075784;28;20123;-68
2024/01/01 01:18:14;;;;;;;5.15;0.60;;;8.30;99.90;;;;;;5076021;28;20044;-67
2024/01/01 01:20:40;;;;;;;7.00;2.28;;;8.30;99.90;;;;;;5058013;28;20023;-69
2024/01/01 01:23:06;;;;;;;1.38;0.52;;;8.30;99.90;;;;;;5058341;28;20067;-67
2024/01/01 01:25:31;;;;;;;2.53;1.02;;;8.40;99.90;;;;;;5075558;28;20067;-67
2024/01/01 01:27:58;;;;;;;5.40;1.02;;;8.30;99.90;;;;;;5058039;28;20484;-68
2024/01/01 01:30:24;;;;;;;8.10;1.20;;;8.40;99.90;;;;;;5057744;28;20501;-68
2024/01/01 01:32:50;;;;;;;0.20;0.20;;;8.40;99.90;;;;;;5075706;28;20119;-67
2024/01/01 01:35:16;;;;;;;6.35;2.65;;;8.40;99.90;;;;;;5075598;28;20024;-68
2024/01/01 01:37:43;;;;;;;0.73;0.50;;;8.40;99.90;;;;;;5057908;28;20060;-68
2024/01/01 01:40:09;;;;;;;4.68;1.60;;;8.30;99.90;;;;;;5057135;28;20028;-68
2024/01/01 01:42:36;;;;;;;6.88;1.67;;;8.40;99.90;;;;;;5057840;28;20021;-67
2024/01/01 01:45:02;;;;;;;3.75;0.73;;;8.30;99.90;;;;;;5057478;28;20507;-68
2024/01/01 01:47:29;;;;;;;9.88;2.33;;;8.30;99.90;;;;;;5057565;28;20421;-68
2024/01/01 01:49:56;;;;;;;1.40;0.63;;;8.40;99.90;;;;;;5057350;28;20032;-68
2024/01/01 01:52:22;;;;;;;2.40;1.58;;;8.40;99.90;;;;;;5057420;28;20166;-67
2024/01/01 01:54:51;;;;;;;2.95;0.98;;;8.30;99.90;;;;;;5074250;28;20031;-68
2024/01/01 01:57:17;;;;;;;6.63;0.93;;;8.40;99.90;;;;;;5057267;28;20520;-68
2024/01/01 01:59:44;;;;;;;3.33;1.23;;;8.30;99.90;;;;;;5075409;28;20373;-68
2024/01/01 02:02:14;;;;;;;23.85;2.50;;;8.40;99.90;;;;;;5040913;28;20098;-68
2024/01/01 02:04:40;;;;;;;5.88;1.80;;;8.30;99.90;;;;;;5074956;28;20472;-68
2024/01/01 02:07:06;;;;;;;9.15;2.00;;;8.30;99.90;;;;;;5075038;28;20063;-68
2024/01/01 02:09:32;;;;;;;4.15;0.80;;;8.40;99.90;;;;;;5074810;28;20044;-68
2024/01/01 02:11:58;;;;;;;6.22;1.67;;;8.30;99.90;;;;;;5057012;28;20086;-67
2024/01/01 02:14:24;;;;;;;5.07;1.48;;;8.30;99.90;;;;;;5056873;28;20097;-68
2024/01/01 02:16:50;;;;;;;3.13;1.70;;;8.40;99.90;;;;;;5074877;28;20059;-68
2024/01/01 02:19:20;;;;;;;7.38;1.35;;;8.40;99.90;;;;;;5074797;28;20469;-67
2024/01/01 02:21:48;;;;;;;14.10;1.33;;;8.30;99.90;;;;;;5074827;28;20017;-68
2024/01/01 02:24:15;;;;;;;4.20;0.95;;;8.20;99.90;;;;;;5056400;28;20046;-68
2024/01/01 02:26:45;;;;;;;7.03;1.45;;;8.30;99.90;;;;;;5062288;28;20082;-69
2024/01/01 02:29:12;;;;;;;0.55;0.43;;;8.20;99.90;;;;;;5038071;28;20067;-67
2024/01/01 02:31:38;;;;;;;7.82;1.88;;;8.20;99.90;;;;;;5042698;28;20480;-69
2024/01/01 02:34:04;;;;;;;5.10;0.85;;;8.20;99.90;;;;;;5056562;28;20025;-68
2024/01/01 02:36:35;;;;;;;14.25;2.15;;;8.20;99.90;;;;;;5056707;28;20025;-68
2024/01/01 02:39:02;;;;;;;7.88;1.70;;;8.20;99.90;;;;;;5056157;28;20044;-68
2024/01/01 02:41:33;;;;;;;8.35;1.30;;;8.20;99.90;;;;;;5074406;28;20096;-68
2024/01/01 02:43:59;;;;;;;4.87;2.23;;;8.20;99.90;;;;;;5042254;28;20052;-68
2024/01/01 02:46:25;;;;;;;3.53;1.25;;;8.20;99.90;;;;;;5039689;28;20385;-69
2024/01/01 02:48:51;;;;;;;0.03;0.03;;;8.20;99.90;;;;;;5074553;28;20025;-69
2024/01/01 02:51:17;;;;;;;5.00;1.33;;;8.20;99.90;;;;;;5074097;28;20035;-69
2024/01/01 02:53:43;;;;;;;1.45;0.80;;;8.20;99.90;;;;;;5056247;28;20054;-67
2024/01/01 02:56:25;;;;;;;0.25;0.25;;;8.30;99.90;;;;;;5056019;28;20048;-68
2024/01/01 02:58:53;;;;;;;2.67;0.77;;;8.40;99.90;;;;;;5056583;28;20056;-68
2024/01/01 03:01:18;;;;;;;10.35;1.23;;;8.30;99.90;;;;;;5042085;28;20041;-68
2024/01/01 03:03:44;;;;;;;3.53;1.45;;;8.40;99.90;;;;;;5073924;28;20112;-68
2024/01/01 03:06:10;;;;;;;18.88;9.07;;;8.30;99.90;;;;;;5073439;28;20063;-69
2024/01/01 03:08:38;;;;;;;13.57;2.60;;;8.30;99.90;;;;;;5073912;28;20461;-67
2024/01/01 03:11:05;;;;;;;6.63;1.90;;;8.30;99.90;;;;;;5056000;28;20366;-67
2024/01/01 03:13:31;;;;;;;15.38;1.85;;;8.40;99.90;;;;;;5055563;28;20019;-69
2024/01/01 03:15:57;;;;;;;3.97;0.90;;;8.30;99.90;;;;;;5055916;28;20132;-68
2024/01/01 03:18:23;;;;;;;6.65;0.95;;;8.30;99.90;;;;;;5055606;28;20032;-67
2024/01/01 03:20:49;;;;;;;6.82;1.55;;;8.30;99.90;;;;;;5073686;28;20078;-69
2024/01/01 03:23:15;;;;;;;10.93;2.28;;;8.20;99.90;;;;;;5055464;28;20024;-67
2024/01/01 03:25:41;;;;;;;11.38;1.65;;;8.20;99.90;;;;;;5055744;28;20042;-69
2024/01/01 03:28:07;;;;;;;8.80;0.90;;;8.20;99.90;;;;;;5073412;28;20036;-67
2024/01/01 03:30:33;;;;;;;10.52;1.77;;;8.30;99.90;;;;;;5073528;28;20025;-67
2024/01/01 03:32:59;;;;;;;4.25;1.48;;;8.40;99.90;;;;;;5055493;28;20036;-68
2024/01/01 03:35:25;;;;;;;6.75;1.63;;;8.40;99.90;;;;;;5041019;28;20054;-68
2024/01/01 03:37:51;;;;;;;26.60;1.65;;;8.30;99.90;;;;;;5073194;28;20037;-67
2024/01/01 03:40:17;;;;;;;13.15;1.20;;;8.30;99.90;;;;;;5073325;28;20044;-68
2024/01/01 03:42:43;;;;;;;5.45;1.33;;;8.30;99.90;;;;;;5073413;28;20017;-69
2024/01/01 03:45:09;;;;;;;8.30;1.20;;;8.10;99.90;;;;;;5073401;28;20025;-68
2024/01/01 03:47:35;;;;;;;4.50;1.35;;;8.20;99.90;;;;;;5055167;28;20027;-67
2024/01/01 03:50:01;;;;;;;12.35;0.73;;;8.10;99.90;;;;;;5072958;28;20111;-68
2024/01/01 03:52:27;;;;;;;7.07;0.98;;;8.10;99.90;;;;;;5073162;28;20502;-68
2024/01/01 03:54:53;;;;;;;5.00;1.15;;;8.10;99.90;;;;;;5073274;28;20025;-68
2024/01/01 03:57:18;;;;;;;0.65;0.25;;;8.20;99.90;;;;;;5072915;28;20098;-68
2024/01/01 03:59:44;;;;;;;11.40;1.27;;;8.20;99.90;;;;;;5055200;28;20519;-67
2024/01/01 04:02:10;;;;;;;3.33;1.20;;;8.20;99.90;;;;;;5055441;28;20028;-67
2024/01/01 04:04:37;;;;;;;25.92;2.25;;;8.20;99.90;;;;;;5072295;28;20059;-68
2024/01/01 04:07:03;;;;;;;15.65;3.05;;;8.10;99.90;;;;;;5073212;28;20024;-68
2024/01/01 04:09:29;;;;;;;12.40;1.58;;;8.10;99.90;;;;;;5054823;28;20028;-67
2024/01/01 04:11:55;;;;;;;5.97;1.25;;;8.10;99.90;;;;;;5055152;28;20677;-68
2024/01/01 04:14:21;;;;;;;10.32;1.75;;;8.20;99.90;;;;;;5054691;28;20029;-67
2024/01/01 04:16:46;;;;;;;4.18;0.93;;;8.20;99.90;;;;;;5072412;28;20094;-68
2024/01/01 04:19:12;;;;;;;6.18;1.13;;;8.20;99.90;;;;;;5072623;28;20048;-68
2024/01/01 04:21:39;;;;;;;7.75;2.22;;;8.10;99.90;;;;;;5072907;28;20358;-68
2024/01/01 04:24:10;;;;;;;7.15;1.55;;;8.10;99.90;;;;;;5054736;28;20043;-68
2024/01/01 04:26:39;;;;;;;13.43;1.80;;;8.10;99.90;;;;;;5054790;28;20029;-69
2024/01/01 04:29:05;;;;;;;4.57;0.88;;;8.10;99.90;;;;;;5072860;28;20385;-67
2024/01/01 04:31:30;;;;;;;4.78;1.02;;;8.10;99.90;;;;;;5055101;28;20032;-68
2024/01/01 04:33:56;;;;;;;4.80;2.50;;;8.20;99.90;;;;;;5067974;28;20505;-67
2024/01/01 04:36:22;;;;;;;6.97;1.70;;;8.10;99.90;;;;;;5063103;28;20029;-68
2024/01/01 04:38:48;;;;;;;4.28;0.63;;;8.10;99.90;;;;;;5072337;28;20036;-68
2024/01/01 04:41:14;;;;;;;1.10;0.55;;;8.10;99.90;;;;;;5072793;28;20043;-67
2024/01/01 04:43:40;;;;;;;6.38;2.67;;;8.10;99.90;;;;;;5072518;28;20028;-67
2024/01/01 04:46:07;;;;;;;15.45;2.28;;;8.10;99.90;;;;;;5072839;28;20025;-69
2024/01/01 04:48:36;;;;;;;8.05;1.92;;;8.20;99.90;;;;;;5072273;28;20037;-68
2024/01/01 04:51:02;;;;;;;3.17;1.13;;;8.20;99.90;;;;;;5055067;28;20036;-68
2024/01/01 04:53:28;;;;;;;4.68;1.05;;;8.20;99.90;;;;;;5072517;28;20040;-68
2024/01/01 04:55:54;;;;;;;16.42;1.80;;;8.10;99.90;;;;;;5072374;28;20100;-69
2024/01/01 04:58:20;;;;;;;12.85;1.88;;;8.20;99.90;;;;;;5072298;28;20051;-67
2024/01/01 05:00:46;;;;;;;9.75;0.90;;;8.10;99.90;;;;;;5072186;28;20033;-68
2024/01/01 05:03:12;;;;;;;3.28;1.13;;;8.00;99.90;;;;;;5072017;28;20032;-68
2024/01/01 05:05:37;;;;;;;8.95;1.02;;;8.00;99.90;;;;;;5072109;28;20036;-68
2024/01/01 05:08:04;;;;;;;2.58;1.27;;;8.00;99.90;;;;;;5071967;28;20033;-68
2024/01/01 05:10:30;;;;;;;4.60;1.33;;;8.10;99.90;;;;;;5054382;28;20017;-68
2024/01/01 05:12:55;;;;;;;1.45;1.35;;;8.10;99.90;;;;;;5054264;28;20036;-68
2024/01/01 05:15:21;;;;;;;16.35;2.00;;;8.10;99.90;;;;;;5071901;28;20029;-68
2024/01/01 05:17:47;;;;;;;1.45;0.10;;;8.00;99.90;;;;;;5071634;28;20086;-67
2024/01/01 05:20:13;;;;;;;5.88;1.02;;;8.10;99.90;;;;;;5072211;28;20032;-68
2024/01/01 05:22:40;;;;;;;0.30;0.20;;;8.10;99.90;;;;;;5072018;28;20029;-68
2024/01/01 05:25:07;;;;;;;0.65;0.65;;;8.10;99.90;;;;;;5071641;28;20047;-68
2024/01/01 05:27:33;;;;;;;11.75;1.23;;;8.10;99.90;;;;;;5072136;28;20115;-68
2024/01/01 05:29:59;;;;;;;7.20;2.17;;;8.00;99.90;;;;;;5056239;28;20051;-67
2024/01/01 05:32:25;;;;;;;4.35;1.13;;;8.10;99.90;;;;;;5075678;28;20385;-68
2024/01/01 05:34:51;;;;;;;5.93;0.57;;;8.10;99.90;;;;;;5063437;28;20358;-67
2024/01/01 05:37:17;;;;;;;7.97;1.98;;;8.20;99.90;;;;;;5073132;28;20037;-68
2024/01/01 05:39:43;;;;;;;6.07;1.70;;;8.10;99.90;;;;;;5075444;28;20040;-67
2024/01/01 05:42:08;;;;;;;4.25;1.95;;;8.10;99.90;;;;;;5075463;28;20031;-67
2024/01/01 05:44:34;;;;;;;8.88;2.63;;;8.10;99.90;;;;;;5075412;28;20051;-68
2024/01/01 05:47:00;;;;;;;3.75;0.95;;;8.20;99.90;;;;;;5075052;28;20021;-68
2024/01/01 05:49:27;;;;;;;0.22;0.22;;;8.20;99.90;;;;;;5064821;28;20032;-68
2024/01/01 05:51:53;;;;;;;1.75;0.73;;;8.20;99.90;;;;;;5066605;28;20521;-67
2024/01/01 05:54:19;;;;;;;3.10;1.25;;;8.10;99.90;;;;;;5074772;28;20032;-68
2024/01/01 05:56:45;;;;;;;5.88;1.02;;;8.20;99.90;;;;;;5075113;28;20025;-68
2024/01/01 05:59:10;;;;;;;1.35;0.93;;;8.20;99.90;;;;;;5056912;28;20041;-68
2024/01/01 06:01:36;;;;;;;0.22;0.22;;;8.20;99.90;;;;;;5074832;28;20470;-67
2024/01/01 06:04:02;;;;;;;1.55;0.52;;;8.20;99.90;;;;;;5074597;28;20036;-68
2024/01/01 06:06:28;;;;;;;8.55;1.13;;;8.30;99.90;;;;;;5075020;28;20444;-69
2024/01/01 06:08:54;;;;;;;9.38;0.90;;;8.30;99.90;;;;;;5075075;28;20008;-68
2024/01/01 06:11:19;;;;;;;1.77;1.00;;;8.20;99.90;;;;;;5074632;28;20028;-68
2024/01/01 06:13:46;;;;;;;4.38;1.35;;;8.30;99.90;;;;;;5057046;28;20025;-67
2024/01/01 06:16:15;;;;;;;3.45;0.68;;;8.30;99.90;;;;;;5074314;28;20377;-68
2024/01/01 06:18:42;;;;;;;5.07;1.08;;;8.30;99.90;;;;;;5074582;28;20047;-69
2024/01/01 06:21:08;;;;;;;3.28;0.52;;;8.30;99.90;;;;;;5074439;28;20475;-68
2024/01/01 06:23:33;;;;;;;0.30;0.28;;;8.40;99.90;;;;;;5056503;28;20050;-68
2024/01/01 06:26:00;;;;;;;3.60;0.90;;;8.30;99.90;;;;;;5056625;28;20573;-68
2024/01/01 06:28:26;;;;;;;1.50;1.30;;;8.30;99.90;;;;;;5074418;28;20056;-68
2024/01/01 06:30:52;;;;;;;7.35;1.13;;;8.30;99.90;;;;;;5074295;28;20033;-69
2024/01/01 06:33:18;;;;;;;3.78;1.23;;;8.30;99.90;;;;;;5056701;28;20037;-67
2024/01/01 06:35:44;;;;;;;3.28;1.23;;;8.20;99.90;;;;;;5060786;28;20020;-68
2024/01/01 06:38:11;;;;;;;2.08;1.08;;;8.40;99.90;;;;;;5074459;28;20036;-67
2024/01/01 06:40:37;;;;;;;8.38;1.17;;;8.40;99.90;;;;;;5074249;28;20027;-69
2024/01/01 06:43:03;;;;;;;14.82;1.83;;;8.30;99.90;;;;;;5074392;28;20032;-68
2024/01/01 06:45:29;;;;;;;7.50;1.63;;;8.30;99.90;;;;;;5073976;28;20021;-68
2024/01/01 06:47:55;;;;;;;3.42;0.30;;;8.20;99.90;;;;;;5074188;28;20029;-68
2024/01/01 06:50:22;;;;;;;0.10;0.10;;;8.30;99.90;;;;;;5074569;28;20031;-68
2024/01/01 06:52:48;;;;;;;13.70;2.90;;;8.30;99.90;;;;;;5074066;28;20024;-68
2024/01/01 06:55:16;;;;;;;2.72;1.02;;;8.30;99.90;;;;;;5074321;28;20480;-67
2024/01/01 06:57:41;;;;;;;1.00;0.63;;;8.20;99.90;;;;;;5074028;28;20575;-67
2024/01/01 07:00:08;;;;;;;1.45;0.45;;;8.30;99.90;;;;;;5073952;28;20033;-69
2024/01/01 07:02:33;;;;;;;7.95;1.90;;;8.30;99.90;;;;;;5074040;28;20059;-67
2024/01/01 07:05:00;;;;;;;1.75;0.47;;;8.30;99.90;;;;;;5074046;28;20068;-68
2024/01/01 07:07:26;;;;;;;6.55;1.02;;;8.50;99.90;;;;;;5073847;28;20020;-67
2024/01/01 07:09:52;;;;;;;4.78;1.25;;;8.40;99.90;;;;;;5060117;28;20101;-68
2024/01/01 07:12:27;;;;;;;6.38;0.80;;;8.30;99.90;;;;;;5073569;28;20021;-68
2024/01/01 07:14:53;;;;;;;1.13;0.52;;;8.30;99.90;;;;;;5055746;28;20048;-68
2024/01/01 07:17:20;;;;;;;0.30;0.30;;;8.30;99.90;;;;;;5073635;28;20033;-68
2024/01/01 07:19:46;;;;;;;2.53;0.15;;;8.30;99.90;;;;;;5073903;28;20051;-69
2024/01/01 07:22:12;;;;;;;0.15;0.03;;;8.30;99.90;;;;;;5073720;28;20029;-68
2024/01/01 07:24:39;;;;;;;3.70;0.77;;;8.40;99.90;;;;;;5073402;28;20146;-68
2024/01/01 07:27:05;;;;;;;4.03;0.50;;;8.40;99.90;;;;;;5073294;28;20058;-69
2024/01/01 07:29:32;;;;;;;0.00;0.00;;;8.40;99.90;;;;;;5073788;28;20378;-68
2024/01/01 07:31:58;;;;;;;5.07;0.95;;;8.50;99.90;;;;;;5073452;28;20036;-68
2024/01/01 07:34:24;;;;;;;2.92;0.70;;;8.50;99.90;;;;;;5065522;28;20028;-68
2024/01/01 07:36:51;;;;;;;1.13;0.47;;;8.50;99.90;;;;;;5067577;28;20453;-68
2024/01/01 07:39:19;;;;;;;3.22;0.82;;;8.50;99.90;;;;;;5073203;28;20047;-68
2024/01/01 07:41:49;;;;;;;17.70;2.08;;;8.50;99.90;;;;;;5073379;28;20472;-67
2024/01/01 07:44:15;;;;;;;0.68;0.68;;;8.50;99.90;;;;;;5073155;28;20036;-69
2024/01/01 07:46:46;;;;;;;3.33;0.57;;;8.50;99.90;;;;;;5073590;28;20028;-68
2024/01/01 07:49:12;;;;;;;5.20;0.88;;;8.50;99.90;;;;;;5073184;28;20029;-67
2024/01/01 07:51:38;;;;;;;1.13;0.60;;;8.40;99.90;;;;;;5072620;28;20025;-68
2024/01/01 07:54:05;;;;;;;8.43;1.67;;;8.40;99.90;;;;;;5073565;28;20025;-68
2024/01/01 07:56:31;;;;;;;5.40;1.27;;;8.50;99.90;;;;;;5073130;28;20496;-67
2024/01/01 07:58:57;;;;;;;0.52;0.50;;;8.50;99.90;;;;;;5072857;28;20052;-67
2024/01/01 08:01:24;;;;;;;4.47;0.93;;;8.40;99.90;;;;;;5055357;28;20028;-67
2024/01/01 08:03:50;;;;;;;8.82;0.98;;;8.40;99.90;;;;;;5072777;28;20032;-67
2024/01/01 08:06:21;;;;;;;8.38;1.55;;;8.40;99.90;;;;;;5054573;28;20476;-68
2024/01/01 08:08:46;;;;;;;28.73;1.10;;;8.40;99.90;;;;;;5054506;28;20028;-68
2024/01/01 08:11:13;;;;;;;1.05;0.95;;;8.40;99.90;;;;;;5057871;28;20051;-68
2024/01/01 08:13:39;;;;;;;2.67;1.10;;;8.40;99.90;;;;;;5072670;28;20457;-68
2024/01/01 08:16:05;;;;;;;10.68;1.42;;;8.50;99.90;;;;;;5054402;28;20035;-67
2024/01/01 08:18:31;;;;;;;1.45;0.20;;;8.50;99.90;;;;;;5072250;28;20029;-69
2024/01/01 08:20:57;;;;;;;5.07;1.10;;;8.50;99.90;;;;;;5072783;28;20421;-69
2024/01/01 08:23:23;;;;;;;5.03;1.95;;;8.40;99.90;;;;;;5072081;28;20020;-68
2024/01/01 08:25:49;;;;;;;9.20;1.25;;;8.40;99.90;;;;;;5071980;28;20077;-67
2024/01/01 08:28:15;;;;;;;0.57;0.30;;;8.40;99.90;;;;;;5072063;28;20021;-68
2024/01/01 08:30:43;;;;;;;0.20;0.20;;;8.50;99.90;;;;;;5072971;28;20025;-68
2024/01/01 08:33:09;;;;;;;4.90;1.38;;;8.50;99.90;;;;;;5072527;28;20036;-69
2024/01/01 08:35:35;;;;;;;0.35;0.35;;;8.60;99.90;;;;;;5058537;28;20013;-68
2024/01/01 08:38:01;;;;;;;3.17;1.13;;;8.60;99.90;;;;;;5072784;28;20041;-68
2024/01/01 08:40:27;;;;;;;0.13;0.13;;;8.50;99.90;;;;;;5071915;28;20072;-68
2024/01/01 08:42:53;;;;;;;1.33;0.65;;;8.60;99.90;;;;;;5055124;28;20553;-69
2024/01/01 08:45:19;;;;;;;9.30;1.70;;;8.70;99.90;;;;;;5072507;28;20056;-69
2024/01/01 08:47:46;;;;;;;3.85;0.40;;;8.70;99.90;;;;;;5072837;28;20024;-69
2024/01/01 08:50:13;;;;;;;0.20;0.20;;;8.70;99.90;;;;;;5072629;28;20532;-69
2024/01/01 08:52:39;;;;;;;27.60;1.67;;;8.60;99.90;;;;;;5072623;28;20032;-69
2024/01/01 08:55:05;;;;;;;4.32;1.08;;;8.70;99.90;;;;;;5072279;28;20028;-69
2024/01/01 08:57:31;;;;;;;0.30;0.30;;;8.60;99.90;;;;;;5054425;28;20139;-68
2024/01/01 08:59:57;;;;;;;2.63;1.40;;;8.60;99.90;;;;;;5072548;28;20060;-69
2024/01/01 09:02:23;;;;;;;5.10;0.70;;;8.70;99.90;;;;;;5072526;28;20449;-69
2024/01/01 09:04:49;;;;;;;2.92;1.10;;;8.60;99.90;;;;;;5058168;28;20489;-70
2024/01/01 09:07:14;;;;;;;0.75;0.75;;;8.70;99.90;;;;;;5076341;28;20392;-69
2024/01/01 09:09:40;;;;;;;0.43;0.22;;;8.80;99.90;;;;;;5075981;28;20101;-69
2024/01/01 09:12:07;;;;;;;7.72;1.38;;;8.80;99.90;;;;;;5048077;28;20021;-69
2024/01/01 09:14:35;;;;;;;3.85;1.30;;;8.70;99.90;;;;;;5060914;22;20485;-69
2024/01/01 09:17:01;;;;;;;9.50;1.75;;;8.70;99.90;;;;;;5056163;28;20040;-69
2024/01/01 09:19:26;;;;;;;11.32;3.13;;;8.70;99.90;;;;;;5055772;28;20029;-68
2024/01/01 09:21:52;;;;;;;1.40;0.90;;;8.80;99.90;;;;;;5049484;28;20040;-68
2024/01/01 09:24:18;;;;;;;9.50;1.45;;;8.70;99.90;;;;;;5048420;28;20040;-69
2024/01/01 09:26:44;;;;;;;1.38;0.75;;;8.80;99.90;;;;;;5055960;28;20526;-68
2024/01/01 09:29:09;;;;;;;5.97;0.98;;;8.80;99.90;;;;;;5056104;28;20029;-69
2024/01/01 09:31:36;;;;;;;6.03;1.08;;;8.80;99.90;;;;;;5041574;28;20056;-68
2024/01/01 09:34:03;;;;;;;5.28;0.95;;;8.80;99.90;;;;;;5055943;28;20037;-68
2024/01/01 09:36:29;;;;;;;9.13;1.27;;;8.90;99.90;;;;;;5055802;28;20040;-68
2024/01/01 09:38:55;;;;;;;0.55;0.55;;;8.90;99.90;;;;;;5037578;28;20462;-68
2024/01/01 09:41:25;;;;;;;7.15;1.13;;;8.80;99.90;;;;;;5037898;28;20112;-68
2024/01/01 09:43:55;;;;;;;0.10;0.10;;;8.90;99.90;;;;;;5054222;28;20066;-68
2024/01/01 09:46:22;;;;;;;1.65;1.17;;;8.90;99.90;;;;;;5055584;28;20087;-68
2024/01/01 09:48:48;;;;;;;10.43;1.00;;;8.80;99.90;;;;;;5055545;28;20086;-69
2024/01/01 09:51:15;;;;;;;0.20;0.20;;;8.90;99.90;;;;;;5054304;28;20024;-69
2024/01/01 09:53:44;;;;;;;1.10;0.22;;;9.00;99.90;;;;;;5055000;28;20057;-69
2024/01/01 09:56:10;;;;;;;0.10;0.10;;;8.90;99.90;;;;;;5055133;28;20021;-68
2024/01/01 09:58:43;;;;;;;8.05;1.52;;;9.00;99.90;;;;;;5055170;28;20041;-68
2024/01/01 10:01:10;;;;;;;7.47;2.25;;;8.80;99.90;;;;;;5055182;28;20032;-71
2024/01/01 10:03:37;;;;;;;1.35;0.65;;;8.80;99.90;;;;;;5055303;28;20040;-69
2024/01/01 10:06:11;;;;;;;3.97;1.77;;;8.90;99.90;;;;;;5055076;28;20021;-69
2024/01/01 10:08:38;;;;;;;4.13;0.98;;;8.90;99.90;;;;;;5054921;28;20021;-68
2024/01/01 10:11:19;;;;;;;9.57;1.02;;;8.90;99.90;;;;;;5055081;28;20108;-69
2024/01/01 10:13:45;;;;;;;2.10;1.13;;;8.90;99.90;;;;;;5054789;28;20064;-69
2024/01/01 10:16:26;;;;;;;7.25;3.97;;;9.10;99.90;;;;;;5054230;28;20040;-69
2024/01/01 10:18:56;;;;;;;6.82;0.88;;;9.00;99.90;;;;;;5054941;28;20048;-69
2024/01/01 10:21:35;;;;;;;2.42;0.75;;;9.10;99.90;;;;;;5036672;28;20064;-69
2024/01/01 10:24:21;;;;;;;1.40;0.38;;;9.10;99.90;;;;;;5054853;28;20029;-68
2024/01/01 10:26:47;;;;;;;3.63;1.50;;;9.10;99.90;;;;;;5036739;28;20032;-69
2024/01/01 10:29:15;;;;;;;0.00;0.00;;;9.20;99.90;;;;;;5054969;28;20057;-69
2024/01/01 10:31:45;;;;;;;1.45;1.05;;;9.30;99.90;;;;;;5054536;28;20107;-69
2024/01/01 10:34:14;;;;;;;3.72;2.30;;;9.20;99.90;;;;;;5054488;28;20432;-69
2024/01/01 10:36:41;;;;;;;0.20;0.20;;;9.20;99.90;;;;;;5054376;28;20036;-69
2024/01/01 10:39:09;;;;;;;10.15;2.08;;;9.20;99.90;;;;;;5054404;28;20132;-69
2024/01/01 10:41:38;;;;;;;6.30;0.68;;;9.10;99.90;;;;;;5054569;28;20032;-69
2024/01/01 10:44:08;;;;;;;2.75;1.55;;;9.10;99.90;;;;;;5054567;28;20508;-68
2024/01/01 10:46:39;;;;;;;6.50;2.35;;;9.20;99.90;;;;;;5053034;28;20029;-70
2024/01/01 10:49:12;;;;;;;0.43;0.43;;;9.20;99.90;;;;;;5040457;28;20106;-69
2024/01/01 10:52:16;;;;;;;2.08;0.38;;;9.40;99.90;;;;;;5054026;28;20131;-69
2024/01/01 10:55:02;;;;;;;0.25;0.25;;;9.40;99.90;;;;;;5013140;28;20175;-68
2024/01/01 10:57:53;;;;;;;0.85;0.60;;;9.70;99.90;;;;;;5040032;28;20056;-69
2024/01/01 11:00:29;;;;;;;12.48;2.60;;;9.60;99.90;;;;;;5054298;28;20063;-70
2024/01/01 11:02:56;;;;;;;3.20;0.80;;;9.50;99.90;;;;;;5053891;28;20029;-70
2024/01/01 11:05:33;;;;;;;4.57;0.63;;;9.30;99.90;;;;;;5042997;28;20120;-70
2024/01/01 11:08:02;;;;;;;2.50;1.00;;;9.40;99.90;;;;;;5052301;28;20068;-69
2024/01/01 11:10:44;;;;;;;1.77;0.98;;;9.30;99.90;;;;;;5054001;28;20533;-68
2024/01/01 11:13:26;;;;;;;3.10;0.85;;;9.20;99.90;;;;;;5069944;22;20024;-68
2024/01/01 11:15:59;;;;;;;3.33;1.35;;;9.40;99.90;;;;;;5032605;28;20052;-68
2024/01/01 11:18:34;;;;;;;12.23;2.72;;;9.30;99.90;;;;;;5022442;28;20032;-69
2024/01/01 11:21:01;;;;;;;2.75;2.05;;;9.10;99.90;;;;;;5040071;28;20381;-68
2024/01/01 11:23:46;;;;;;;3.45;1.52;;;9.20;99.90;;;;;;5027934;28;20093;-69
2024/01/01 11:26:27;;;;;;;1.00;0.22;;;9.20;99.90;;;;;;5027612;28;20113;-68
2024/01/01 11:28:58;;;;;;;3.53;0.20;;;9.20;99.90;;;;;;5042089;28;20025;-68
2024/01/01 11:31:25;;;;;;;3.53;1.75;;;9.20;99.90;;;;;;5038067;28;20033;-68
2024/01/01 11:34:06;;;;;;;2.75;2.03;;;9.30;99.90;;;;;;5033081;28;20080;-68
2024/01/01 11:36:33;;;;;;;4.13;0.65;;;9.40;99.90;;;;;;5045230;28;20108;-70
2024/01/01 11:38:59;;;;;;;5.00;1.85;;;9.50;99.90;;;;;;5049475;28;20044;-68
2024/01/01 11:41:27;;;;;;;0.75;0.30;;;9.50;99.90;;;;;;5033397;28;20138;-69
2024/01/01 11:43:53;;;;;;;6.32;1.52;;;9.70;99.90;;;;;;5032493;28;20038;-68
2024/01/01 11:46:23;;;;;;;0.00;0.00;;;9.60;99.90;;;;;;5033355;28;20057;-69
2024/01/01 11:48:58;;;;;;;0.08;0.08;;;9.50;99.90;;;;;;5032837;28;20073;-69
2024/01/01 11:51:25;;;;;;;1.95;0.47;;;9.60;99.90;;;;;;5031759;28;20033;-69
2024/01/01 11:54:27;;;;;;;4.57;1.63;;;9.60;99.90;;;;;;5032445;28;20025;-69
2024/01/01 11:56:56;;;;;;;2.42;1.52;;;9.40;99.90;;;;;;4971718;28;20494;-69
2024/01/01 11:59:24;;;;;;;6.35;1.15;;;9.50;99.90;;;;;;5030525;28;20029;-70
2024/01/01 12:01:50;;;;;;;11.18;1.48;;;9.40;99.90;;;;;;5032421;28;20112;-70
2024/01/01 12:04:17;;;;;;;8.13;1.23;;;9.40;99.90;;;;;;5045872;22;20052;-69
2024/01/01 12:06:50;;;;;;;0.50;0.50;;;9.50;99.90;;;;;;5071210;28;20460;-69
2024/01/01 12:09:15;;;;;;;10.70;1.92;;;9.60;99.90;;;;;;5071424;28;20457;-69
2024/01/01 12:11:43;;;;;;;5.00;0.82;;;9.50;99.90;;;;;;5072945;28;20024;-69
2024/01/01 12:14:09;;;;;;;0.00;0.00;;;9.60;99.90;;;;;;5063660;28;20028;-69
2024/01/01 12:16:37;;;;;;;7.75;1.13;;;9.80;99.90;;;;;;5051361;28;20082;-69
2024/01/01 12:19:05;;;;;;;15.38;2.30;;;9.70;99.90;;;;;;5052051;28;20033;-70
2024/01/01 12:21:42;;;;;;;12.77;3.15;;;9.60;99.90;;;;;;5052708;28;20469;-69
2024/01/01 12:24:12;;;;;;;4.15;0.75;;;9.50;99.90;;;;;;5052014;28;20063;-68
2024/01/01 12:26:38;;;;;;;5.20;1.33;;;9.50;99.90;;;;;;5052419;28;20024;-68
2024/01/01 12:29:10;;;;;;;7.10;3.00;;;9.60;99.90;;;;;;5052461;28;20070;-70
2024/01/01 12:31:37;;;;;;;7.32;2.05;;;9.50;99.90;;;;;;5052281;28;20029;-70
2024/01/01 12:34:04;;;;;;;7.88;2.38;;;9.40;99.90;;;;;;5057512;28;20031;-69
2024/01/01 12:36:30;;;;;;;5.18;1.85;;;9.30;99.90;;;;;;5071505;28;20346;-68
2024/01/01 12:38:56;;;;;;;21.33;3.30;;;9.30;99.90;;;;;;5074689;28;20028;-70
2024/01/01 12:41:22;;;;;;;4.38;0.85;;;9.30;99.90;;;;;;5076892;28;20016;-69
2024/01/01 12:43:48;;;;;;;4.97;2.33;;;9.40;99.90;;;;;;5076391;28;20424;-70
2024/01/01 12:46:14;;;;;;;3.22;0.98;;;9.30;99.90;;;;;;5076271;28;20027;-70
2024/01/01 12:48:47;;;;;;;7.30;2.60;;;9.30;99.90;;;;;;5075275;28;20430;-70
2024/01/01 12:51:17;;;;;;;6.60;2.45;;;9.20;99.90;;;;;;5076439;28;20025;-69
2024/01/01 12:53:43;;;;;;;6.05;1.42;;;9.30;99.90;;;;;;5076404;28;20021;-69
2024/01/01 12:56:10;;;;;;;3.45;1.25;;;9.50;99.90;;;;;;5076422;28;20074;-70